sensor_id;sensor_type;location;lat;lon;timestamp;P1;P2;P0
64627;PMS5003;68467;50.960;0.314;2024-01-30T00:02:16;25;24;
64627;PMS5003;68467;50.960;0.314;2024-01-30T00:04:43;24;24;
64627;PMS5003;68467;50.960;0.314;2024-01-30T00:07:11;23;22;
64627;PMS5003;68467;50.960;0.314;2024-01-30T00:09:39;24;22;
64627;PMS5003;68467;50.960;0.314;2024-01-30T00:12:06;25;24;
64627;PMS5003;68467;50.960;0.314;2024-01-30T00:14:33;21;20;
64627;PMS5003;68467;50.960;0.314;2024-01-30T00:17:01;24;24;
64627;PMS5003;68467;50.960;0.314;2024-01-30T00:19:29;23;21;
64627;PMS5003;68467;50.960;0.314;2024-01-30T00:21:55;21;21;
64627;PMS5003;68467;50.960;0.314;2024-01-30T00:24:23;26;24;
64627;PMS5003;68467;50.960;0.314;2024-01-30T00:26:50;22;22;
64627;PMS5003;68467;50.960;0.314;2024-01-30T00:29:18;28;24;
64627;PMS5003;68467;50.960;0.314;2024-01-30T00:31:45;21;21;
64627;PMS5003;68467;50.960;0.314;2024-01-30T00:34:13;23;21;
64627;PMS5003;68467;50.960;0.314;2024-01-30T00:36:40;29;27;
64627;PMS5003;68467;50.960;0.314;2024-01-30T00:39:07;23;23;
64627;PMS5003;68467;50.960;0.314;2024-01-30T00:41:34;25;22;
64627;PMS5003;68467;50.960;0.314;2024-01-30T00:44:01;22;21;
64627;PMS5003;68467;50.960;0.314;2024-01-30T00:46:29;23;22;
64627;PMS5003;68467;50.960;0.314;2024-01-30T00:48:56;23;21;
64627;PMS5003;68467;50.960;0.314;2024-01-30T00:51:24;23;23;
64627;PMS5003;68467;50.960;0.314;2024-01-30T00:53:50;19;19;
64627;PMS5003;68467;50.960;0.314;2024-01-30T00:56:18;25;24;
64627;PMS5003;68467;50.960;0.314;2024-01-30T00:58:45;27;24;
64627;PMS5003;68467;50.960;0.314;2024-01-30T01:01:12;21;19;
64627;PMS5003;68467;50.960;0.314;2024-01-30T01:03:40;26;24;
64627;PMS5003;68467;50.960;0.314;2024-01-30T01:06:08;22;22;
64627;PMS5003;68467;50.960;0.314;2024-01-30T01:08:35;25;24;
64627;PMS5003;68467;50.960;0.314;2024-01-30T01:11:03;26;25;
64627;PMS5003;68467;50.960;0.314;2024-01-30T01:13:32;25;24;
64627;PMS5003;68467;50.960;0.314;2024-01-30T01:15:59;26;24;
64627;PMS5003;68467;50.960;0.314;2024-01-30T01:18:27;25;25;
64627;PMS5003;68467;50.960;0.314;2024-01-30T01:20:54;23;21;
64627;PMS5003;68467;50.960;0.314;2024-01-30T01:23:21;29;28;
64627;PMS5003;68467;50.960;0.314;2024-01-30T01:25:49;27;24;
64627;PMS5003;68467;50.960;0.314;2024-01-30T01:28:16;28;27;
64627;PMS5003;68467;50.960;0.314;2024-01-30T01:30:44;25;24;
64627;PMS5003;68467;50.960;0.314;2024-01-30T01:33:11;26;24;
64627;PMS5003;68467;50.960;0.314;2024-01-30T01:35:39;25;23;
64627;PMS5003;68467;50.960;0.314;2024-01-30T01:38:06;23;21;
64627;PMS5003;68467;50.960;0.314;2024-01-30T01:40:33;23;22;
64627;PMS5003;68467;50.960;0.314;2024-01-30T01:43:02;28;26;
64627;PMS5003;68467;50.960;0.314;2024-01-30T01:45:30;23;22;
64627;PMS5003;68467;50.960;0.314;2024-01-30T01:47:58;22;21;
64627;PMS5003;68467;50.960;0.314;2024-01-30T01:50:25;20;19;
64627;PMS5003;68467;50.960;0.314;2024-01-30T01:52:52;17;16;
64627;PMS5003;68467;50.960;0.314;2024-01-30T01:55:21;20;18;
64627;PMS5003;68467;50.960;0.314;2024-01-30T01:57:48;12;11;
64627;PMS5003;68467;50.960;0.314;2024-01-30T02:00:15;12;9;
64627;PMS5003;68467;50.960;0.314;2024-01-30T02:02:45;11;10;
64627;PMS5003;68467;50.960;0.314;2024-01-30T02:05:13;12;11;
64627;PMS5003;68467;50.960;0.314;2024-01-30T02:07:42;7;7;
64627;PMS5003;68467;50.960;0.314;2024-01-30T02:10:10;7;7;
64627;PMS5003;68467;50.960;0.314;2024-01-30T02:12:37;6;5;
64627;PMS5003;68467;50.960;0.314;2024-01-30T02:15:05;7;7;
64627;PMS5003;68467;50.960;0.314;2024-01-30T02:17:33;10;6;
64627;PMS5003;68467;50.960;0.314;2024-01-30T02:20:00;6;6;
64627;PMS5003;68467;50.960;0.314;2024-01-30T02:22:28;5;5;
64627;PMS5003;68467;50.960;0.314;2024-01-30T02:24:56;4;4;
64627;PMS5003;68467;50.960;0.314;2024-01-30T02:27:23;3;3;
64627;PMS5003;68467;50.960;0.314;2024-01-30T02:29:50;4;4;
64627;PMS5003;68467;50.960;0.314;2024-01-30T02:32:17;2;1;
64627;PMS5003;68467;50.960;0.314;2024-01-30T02:34:44;2;2;
64627;PMS5003;68467;50.960;0.314;2024-01-30T02:37:11;3;2;
64627;PMS5003;68467;50.960;0.314;2024-01-30T02:39:39;3;2;
64627;PMS5003;68467;50.960;0.314;2024-01-30T02:42:06;2;2;
64627;PMS5003;68467;50.960;0.314;2024-01-30T02:44:33;3;2;
64627;PMS5003;68467;50.960;0.314;2024-01-30T02:47:00;2;2;
64627;PMS5003;68467;50.960;0.314;2024-01-30T02:49:28;4;4;
64627;PMS5003;68467;50.960;0.314;2024-01-30T02:51:56;2;2;
64627;PMS5003;68467;50.960;0.314;2024-01-30T02:54:23;2;1;
64627;PMS5003;68467;50.960;0.314;2024-01-30T02:56:50;2;2;
64627;PMS5003;68467;50.960;0.314;2024-01-30T02:59:17;2;2;
64627;PMS5003;68467;50.960;0.314;2024-01-30T03:01:44;1;1;
64627;PMS5003;68467;50.960;0.314;2024-01-30T03:04:11;0;0;
64627;PMS5003;68467;50.960;0.314;2024-01-30T03:06:38;1;1;
64627;PMS5003;68467;50.960;0.314;2024-01-30T03:09:05;0;0;
64627;PMS5003;68467;50.960;0.314;2024-01-30T03:11:32;0;0;
64627;PMS5003;68467;50.960;0.314;2024-01-30T03:13:59;2;2;
64627;PMS5003;68467;50.960;0.314;2024-01-30T03:16:26;1;0;
64627;PMS5003;68467;50.960;0.314;2024-01-30T03:18:54;2;1;
64627;PMS5003;68467;50.960;0.314;2024-01-30T03:21:21;0;0;
64627;PMS5003;68467;50.960;0.314;2024-01-30T03:23:49;0;0;
64627;PMS5003;68467;50.960;0.314;2024-01-30T03:26:16;1;1;
64627;PMS5003;68467;50.960;0.314;2024-01-30T03:28:43;1;1;
64627;PMS5003;68467;50.960;0.314;2024-01-30T03:31:10;0;0;
64627;PMS5003;68467;50.960;0.314;2024-01-30T03:33:39;3;2;
64627;PMS5003;68467;50.960;0.314;2024-01-30T03:36:06;1;1;
64627;PMS5003;68467;50.960;0.314;2024-01-30T03:38:34;3;3;
64627;PMS5003;68467;50.960;0.314;2024-01-30T03:41:01;1;1;
64627;PMS5003;68467;50.960;0.314;2024-01-30T03:43:29;1;1;
64627;PMS5003;68467;50.960;0.314;2024-01-30T03:45:56;1;1;
64627;PMS5003;68467;50.960;0.314;2024-01-30T03:48:23;1;1;
64627;PMS5003;68467;50.960;0.314;2024-01-30T03:50:51;4;2;
64627;PMS5003;68467;50.960;0.314;2024-01-30T03:53:18;0;0;
64627;PMS5003;68467;50.960;0.314;2024-01-30T03:55:45;3;1;
64627;PMS5003;68467;50.960;0.314;2024-01-30T03:58:13;1;1;
64627;PMS5003;68467;50.960;0.314;2024-01-30T04:00:40;3;2;
64627;PMS5003;68467;50.960;0.314;2024-01-30T04:03:07;2;2;
64627;PMS5003;68467;50.960;0.314;2024-01-30T04:05:34;0;0;
64627;PMS5003;68467;50.960;0.314;2024-01-30T04:08:01;1;1;
64627;PMS5003;68467;50.960;0.314;2024-01-30T04:10:28;1;0;
64627;PMS5003;68467;50.960;0.314;2024-01-30T04:12:55;3;1;
64627;PMS5003;68467;50.960;0.314;2024-01-30T04:15:22;3;2;
64627;PMS5003;68467;50.960;0.314;2024-01-30T04:17:49;2;1;
64627;PMS5003;68467;50.960;0.314;2024-01-30T04:20:16;2;2;
64627;PMS5003;68467;50.960;0.314;2024-01-30T04:22:44;1;1;
64627;PMS5003;68467;50.960;0.314;2024-01-30T04:25:11;1;1;
64627;PMS5003;68467;50.960;0.314;2024-01-30T04:27:39;0;0;
64627;PMS5003;68467;50.960;0.314;2024-01-30T04:30:07;2;2;
64627;PMS5003;68467;50.960;0.314;2024-01-30T04:32:35;1;1;
64627;PMS5003;68467;50.960;0.314;2024-01-30T04:35:03;1;1;
64627;PMS5003;68467;50.960;0.314;2024-01-30T04:37:30;1;1;
64627;PMS5003;68467;50.960;0.314;2024-01-30T04:39:58;0;0;
64627;PMS5003;68467;50.960;0.314;2024-01-30T04:42:26;1;1;
64627;PMS5003;68467;50.960;0.314;2024-01-30T04:44:53;1;1;
64627;PMS5003;68467;50.960;0.314;2024-01-30T04:47:20;0;0;
64627;PMS5003;68467;50.960;0.314;2024-01-30T04:49:47;3;2;
64627;PMS5003;68467;50.960;0.314;2024-01-30T04:52:15;1;1;
64627;PMS5003;68467;50.960;0.314;2024-01-30T04:54:42;3;1;
64627;PMS5003;68467;50.960;0.314;2024-01-30T04:57:09;0;0;
64627;PMS5003;68467;50.960;0.314;2024-01-30T04:59:36;1;1;
64627;PMS5003;68467;50.960;0.314;2024-01-30T05:02:03;0;0;
64627;PMS5003;68467;50.960;0.314;2024-01-30T05:04:30;1;1;
64627;PMS5003;68467;50.960;0.314;2024-01-30T05:06:57;2;2;
64627;PMS5003;68467;50.960;0.314;2024-01-30T05:09:24;2;2;
64627;PMS5003;68467;50.960;0.314;2024-01-30T05:11:51;1;1;
64627;PMS5003;68467;50.960;0.314;2024-01-30T05:14:19;1;0;
64627;PMS5003;68467;50.960;0.314;2024-01-30T05:16:46;2;2;
64627;PMS5003;68467;50.960;0.314;2024-01-30T05:19:13;1;1;
64627;PMS5003;68467;50.960;0.314;2024-01-30T05:21:40;2;2;
64627;PMS5003;68467;50.960;0.314;2024-01-30T05:24:08;2;1;
64627;PMS5003;68467;50.960;0.314;2024-01-30T05:26:35;2;2;
64627;PMS5003;68467;50.960;0.314;2024-01-30T05:29:02;4;4;
64627;PMS5003;68467;50.960;0.314;2024-01-30T05:31:29;2;2;
64627;PMS5003;68467;50.960;0.314;2024-01-30T05:33:56;2;2;
64627;PMS5003;68467;50.960;0.314;2024-01-30T05:36:23;3;3;
64627;PMS5003;68467;50.960;0.314;2024-01-30T05:38:50;1;1;
64627;PMS5003;68467;50.960;0.314;2024-01-30T05:41:18;1;1;
64627;PMS5003;68467;50.960;0.314;2024-01-30T05:43:45;2;2;
64627;PMS5003;68467;50.960;0.314;2024-01-30T05:46:12;1;1;
64627;PMS5003;68467;50.960;0.314;2024-01-30T05:48:39;2;2;
64627;PMS5003;68467;50.960;0.314;2024-01-30T05:51:07;1;1;
64627;PMS5003;68467;50.960;0.314;2024-01-30T05:53:33;1;1;
64627;PMS5003;68467;50.960;0.314;2024-01-30T05:56:01;1;1;
64627;PMS5003;68467;50.960;0.314;2024-01-30T05:58:29;1;1;
64627;PMS5003;68467;50.960;0.314;2024-01-30T06:00:56;1;0;
64627;PMS5003;68467;50.960;0.314;2024-01-30T06:03:23;1;1;
64627;PMS5003;68467;50.960;0.314;2024-01-30T06:05:50;1;1;
64627;PMS5003;68467;50.960;0.314;2024-01-30T06:08:17;1;1;
64627;PMS5003;68467;50.960;0.314;2024-01-30T06:10:44;2;2;
64627;PMS5003;68467;50.960;0.314;2024-01-30T06:13:11;4;2;
64627;PMS5003;68467;50.960;0.314;2024-01-30T06:15:39;0;0;
64627;PMS5003;68467;50.960;0.314;2024-01-30T06:18:06;3;3;
64627;PMS5003;68467;50.960;0.314;2024-01-30T06:20:33;2;1;
64627;PMS5003;68467;50.960;0.314;2024-01-30T06:23:00;1;1;
64627;PMS5003;68467;50.960;0.314;2024-01-30T06:25:27;2;2;
64627;PMS5003;68467;50.960;0.314;2024-01-30T06:27:55;2;2;
64627;PMS5003;68467;50.960;0.314;2024-01-30T06:30:22;9;8;
64627;PMS5003;68467;50.960;0.314;2024-01-30T06:32:49;3;2;
64627;PMS5003;68467;50.960;0.314;2024-01-30T06:35:16;1;1;
64627;PMS5003;68467;50.960;0.314;2024-01-30T06:37:43;1;1;
64627;PMS5003;68467;50.960;0.314;2024-01-30T06:40:11;2;2;
64627;PMS5003;68467;50.960;0.314;2024-01-30T06:42:39;2;1;
64627;PMS5003;68467;50.960;0.314;2024-01-30T06:45:06;1;1;
64627;PMS5003;68467;50.960;0.314;2024-01-30T06:47:34;3;2;
64627;PMS5003;68467;50.960;0.314;2024-01-30T06:50:01;2;2;
64627;PMS5003;68467;50.960;0.314;2024-01-30T06:52:28;5;5;
64627;PMS5003;68467;50.960;0.314;2024-01-30T06:54:55;2;2;
64627;PMS5003;68467;50.960;0.314;2024-01-30T06:57:22;2;2;
64627;PMS5003;68467;50.960;0.314;2024-01-30T06:59:49;3;2;
64627;PMS5003;68467;50.960;0.314;2024-01-30T07:02:16;2;2;
64627;PMS5003;68467;50.960;0.314;2024-01-30T07:04:44;2;2;
64627;PMS5003;68467;50.960;0.314;2024-01-30T07:07:11;4;3;
64627;PMS5003;68467;50.960;0.314;2024-01-30T07:09:38;4;4;
64627;PMS5003;68467;50.960;0.314;2024-01-30T07:12:05;5;5;
64627;PMS5003;68467;50.960;0.314;2024-01-30T07:14:33;8;8;
64627;PMS5003;68467;50.960;0.314;2024-01-30T07:17:00;4;3;
64627;PMS5003;68467;50.960;0.314;2024-01-30T07:19:27;4;4;
64627;PMS5003;68467;50.960;0.314;2024-01-30T07:21:54;2;2;
64627;PMS5003;68467;50.960;0.314;2024-01-30T07:24:21;2;2;
64627;PMS5003;68467;50.960;0.314;2024-01-30T07:26:48;4;3;
64627;PMS5003;68467;50.960;0.314;2024-01-30T07:29:15;3;3;
64627;PMS5003;68467;50.960;0.314;2024-01-30T07:31:43;8;7;
64627;PMS5003;68467;50.960;0.314;2024-01-30T07:34:10;7;7;
64627;PMS5003;68467;50.960;0.314;2024-01-30T07:36:38;5;4;
64627;PMS5003;68467;50.960;0.314;2024-01-30T07:39:05;8;8;
64627;PMS5003;68467;50.960;0.314;2024-01-30T07:41:33;6;6;
64627;PMS5003;68467;50.960;0.314;2024-01-30T07:44:00;3;3;
64627;PMS5003;68467;50.960;0.314;2024-01-30T07:46:27;5;3;
64627;PMS5003;68467;50.960;0.314;2024-01-30T07:48:55;2;2;
64627;PMS5003;68467;50.960;0.314;2024-01-30T07:51:22;2;2;
64627;PMS5003;68467;50.960;0.314;2024-01-30T07:53:49;2;2;
64627;PMS5003;68467;50.960;0.314;2024-01-30T07:56:16;2;2;
64627;PMS5003;68467;50.960;0.314;2024-01-30T07:58:43;1;1;
64627;PMS5003;68467;50.960;0.314;2024-01-30T08:01:10;1;1;
64627;PMS5003;68467;50.960;0.314;2024-01-30T08:03:37;1;1;
64627;PMS5003;68467;50.960;0.314;2024-01-30T08:06:05;1;1;
64627;PMS5003;68467;50.960;0.314;2024-01-30T08:08:33;1;1;
64627;PMS5003;68467;50.960;0.314;2024-01-30T08:11:01;1;1;
64627;PMS5003;68467;50.960;0.314;2024-01-30T08:13:28;4;4;
64627;PMS5003;68467;50.960;0.314;2024-01-30T08:15:55;2;2;
64627;PMS5003;68467;50.960;0.314;2024-01-30T08:18:22;1;0;
64627;PMS5003;68467;50.960;0.314;2024-01-30T08:20:49;1;1;
64627;PMS5003;68467;50.960;0.314;2024-01-30T08:23:16;0;0;
64627;PMS5003;68467;50.960;0.314;2024-01-30T08:25:43;2;1;
64627;PMS5003;68467;50.960;0.314;2024-01-30T08:28:10;2;2;
64627;PMS5003;68467;50.960;0.314;2024-01-30T08:30:38;2;2;
64627;PMS5003;68467;50.960;0.314;2024-01-30T08:33:05;1;1;
64627;PMS5003;68467;50.960;0.314;2024-01-30T08:35:32;2;1;
64627;PMS5003;68467;50.960;0.314;2024-01-30T08:37:59;3;3;
64627;PMS5003;68467;50.960;0.314;2024-01-30T08:40:26;1;1;
64627;PMS5003;68467;50.960;0.314;2024-01-30T08:42:53;1;1;
64627;PMS5003;68467;50.960;0.314;2024-01-30T08:45:20;0;0;
64627;PMS5003;68467;50.960;0.314;2024-01-30T08:47:47;1;1;
64627;PMS5003;68467;50.960;0.314;2024-01-30T08:50:15;3;3;
64627;PMS5003;68467;50.960;0.314;2024-01-30T08:52:42;3;3;
64627;PMS5003;68467;50.960;0.314;2024-01-30T08:55:09;3;3;
64627;PMS5003;68467;50.960;0.314;2024-01-30T08:57:36;1;1;
64627;PMS5003;68467;50.960;0.314;2024-01-30T09:00:04;2;2;
64627;PMS5003;68467;50.960;0.314;2024-01-30T09:02:33;2;2;
64627;PMS5003;68467;50.960;0.314;2024-01-30T09:05:00;3;2;
64627;PMS5003;68467;50.960;0.314;2024-01-30T09:07:27;1;1;
64627;PMS5003;68467;50.960;0.314;2024-01-30T09:09:55;3;3;
64627;PMS5003;68467;50.960;0.314;2024-01-30T09:12:22;2;2;
64627;PMS5003;68467;50.960;0.314;2024-01-30T09:14:49;3;3;
64627;PMS5003;68467;50.960;0.314;2024-01-30T09:17:17;5;5;
64627;PMS5003;68467;50.960;0.314;2024-01-30T09:19:45;3;3;
64627;PMS5003;68467;50.960;0.314;2024-01-30T09:22:13;3;3;
64627;PMS5003;68467;50.960;0.314;2024-01-30T09:24:40;3;3;
64627;PMS5003;68467;50.960;0.314;2024-01-30T09:27:07;4;3;
64627;PMS5003;68467;50.960;0.314;2024-01-30T09:29:34;5;5;
64627;PMS5003;68467;50.960;0.314;2024-01-30T09:32:01;4;4;
64627;PMS5003;68467;50.960;0.314;2024-01-30T09:34:30;3;3;
64627;PMS5003;68467;50.960;0.314;2024-01-30T09:36:58;3;3;
64627;PMS5003;68467;50.960;0.314;2024-01-30T09:39:25;4;4;
64627;PMS5003;68467;50.960;0.314;2024-01-30T09:41:55;5;5;
64627;PMS5003;68467;50.960;0.314;2024-01-30T09:44:31;5;5;
64627;PMS5003;68467;50.960;0.314;2024-01-30T09:47:01;3;3;
64627;PMS5003;68467;50.960;0.314;2024-01-30T09:49:28;3;3;
64627;PMS5003;68467;50.960;0.314;2024-01-30T09:51:56;3;3;
64627;PMS5003;68467;50.960;0.314;2024-01-30T09:54:23;2;2;
64627;PMS5003;68467;50.960;0.314;2024-01-30T09:56:50;2;2;
64627;PMS5003;68467;50.960;0.314;2024-01-30T09:59:17;5;4;
64627;PMS5003;68467;50.960;0.314;2024-01-30T10:01:44;4;4;
64627;PMS5003;68467;50.960;0.314;2024-01-30T10:04:12;2;2;
64627;PMS5003;68467;50.960;0.314;2024-01-30T10:06:40;4;3;
64627;PMS5003;68467;50.960;0.314;2024-01-30T10:09:07;2;2;
64627;PMS5003;68467;50.960;0.314;2024-01-30T10:11:35;2;2;
64627;PMS5003;68467;50.960;0.314;2024-01-30T10:14:03;3;3;
64627;PMS5003;68467;50.960;0.314;2024-01-30T10:16:30;3;3;
64627;PMS5003;68467;50.960;0.314;2024-01-30T10:18:57;2;2;
64627;PMS5003;68467;50.960;0.314;2024-01-30T10:21:24;2;2;
64627;PMS5003;68467;50.960;0.314;2024-01-30T10:23:51;4;4;
64627;PMS5003;68467;50.960;0.314;2024-01-30T10:26:18;5;5;
64627;PMS5003;68467;50.960;0.314;2024-01-30T10:28:45;8;7;
64627;PMS5003;68467;50.960;0.314;2024-01-30T10:31:16;10;9;
64627;PMS5003;68467;50.960;0.314;2024-01-30T10:33:43;2;2;
64627;PMS5003;68467;50.960;0.314;2024-01-30T10:36:13;5;4;
64627;PMS5003;68467;50.960;0.314;2024-01-30T10:38:42;18;18;
64627;PMS5003;68467;50.960;0.314;2024-01-30T10:41:09;3;3;
64627;PMS5003;68467;50.960;0.314;2024-01-30T10:43:45;4;4;
64627;PMS5003;68467;50.960;0.314;2024-01-30T10:46:25;19;19;
64627;PMS5003;68467;50.960;0.314;2024-01-30T10:48:57;8;8;
64627;PMS5003;68467;50.960;0.314;2024-01-30T10:51:25;6;6;
64627;PMS5003;68467;50.960;0.314;2024-01-30T10:53:53;3;2;
64627;PMS5003;68467;50.960;0.314;2024-01-30T10:56:22;17;17;
64627;PMS5003;68467;50.960;0.314;2024-01-30T10:58:51;9;9;
64627;PMS5003;68467;50.960;0.314;2024-01-30T11:01:19;2;2;
64627;PMS5003;68467;50.960;0.314;2024-01-30T11:03:47;4;4;
64627;PMS5003;68467;50.960;0.314;2024-01-30T11:06:14;3;3;
64627;PMS5003;68467;50.960;0.314;2024-01-30T11:08:41;4;4;
64627;PMS5003;68467;50.960;0.314;2024-01-30T11:11:09;10;9;
64627;PMS5003;68467;50.960;0.314;2024-01-30T11:13:36;12;11;
64627;PMS5003;68467;50.960;0.314;2024-01-30T11:16:04;4;3;
64627;PMS5003;68467;50.960;0.314;2024-01-30T11:18:32;2;2;
64627;PMS5003;68467;50.960;0.314;2024-01-30T11:21:04;4;4;
64627;PMS5003;68467;50.960;0.314;2024-01-30T11:23:33;8;8;
64627;PMS5003;68467;50.960;0.314;2024-01-30T11:26:01;3;3;
64627;PMS5003;68467;50.960;0.314;2024-01-30T11:28:32;5;5;
64627;PMS5003;68467;50.960;0.314;2024-01-30T11:31:02;4;4;
64627;PMS5003;68467;50.960;0.314;2024-01-30T11:33:30;4;4;
64627;PMS5003;68467;50.960;0.314;2024-01-30T11:35:58;7;6;
64627;PMS5003;68467;50.960;0.314;2024-01-30T11:38:26;9;8;
64627;PMS5003;68467;50.960;0.314;2024-01-30T11:40:54;9;9;
64627;PMS5003;68467;50.960;0.314;2024-01-30T11:43:27;11;10;
64627;PMS5003;68467;50.960;0.314;2024-01-30T11:45:54;11;10;
64627;PMS5003;68467;50.960;0.314;2024-01-30T11:48:21;4;4;
64627;PMS5003;68467;50.960;0.314;2024-01-30T11:50:49;9;9;
64627;PMS5003;68467;50.960;0.314;2024-01-30T11:53:17;15;14;
64627;PMS5003;68467;50.960;0.314;2024-01-30T11:55:49;9;8;
64627;PMS5003;68467;50.960;0.314;2024-01-30T11:58:17;11;11;
64627;PMS5003;68467;50.960;0.314;2024-01-30T12:00:52;6;4;
64627;PMS5003;68467;50.960;0.314;2024-01-30T12:03:20;13;13;
64627;PMS5003;68467;50.960;0.314;2024-01-30T12:05:54;10;10;
64627;PMS5003;68467;50.960;0.314;2024-01-30T12:08:22;8;7;
64627;PMS5003;68467;50.960;0.314;2024-01-30T12:10:55;6;6;
64627;PMS5003;68467;50.960;0.314;2024-01-30T12:13:22;9;9;
64627;PMS5003;68467;50.960;0.314;2024-01-30T12:15:49;5;5;
64627;PMS5003;68467;50.960;0.314;2024-01-30T12:18:18;5;5;
64627;PMS5003;68467;50.960;0.314;2024-01-30T12:20:56;14;14;
64627;PMS5003;68467;50.960;0.314;2024-01-30T12:23:24;31;30;
64627;PMS5003;68467;50.960;0.314;2024-01-30T12:25:52;12;11;
64627;PMS5003;68467;50.960;0.314;2024-01-30T12:28:19;26;26;
64627;PMS5003;68467;50.960;0.314;2024-01-30T12:30:47;36;35;
64627;PMS5003;68467;50.960;0.314;2024-01-30T12:33:16;10;8;
64627;PMS5003;68467;50.960;0.314;2024-01-30T12:35:45;9;9;
64627;PMS5003;68467;50.960;0.314;2024-01-30T12:38:13;11;11;
64627;PMS5003;68467;50.960;0.314;2024-01-30T12:40:40;16;15;
64627;PMS5003;68467;50.960;0.314;2024-01-30T12:43:07;8;8;
64627;PMS5003;68467;50.960;0.314;2024-01-30T12:45:35;8;8;
64627;PMS5003;68467;50.960;0.314;2024-01-30T12:48:03;9;8;
64627;PMS5003;68467;50.960;0.314;2024-01-30T12:50:31;28;28;
64627;PMS5003;68467;50.960;0.314;2024-01-30T12:52:58;29;27;
64627;PMS5003;68467;50.960;0.314;2024-01-30T12:55:26;40;39;
64627;PMS5003;68467;50.960;0.314;2024-01-30T12:57:53;100;94;
64627;PMS5003;68467;50.960;0.314;2024-01-30T13:00:21;52;51;
64627;PMS5003;68467;50.960;0.314;2024-01-30T13:02:48;16;16;
64627;PMS5003;68467;50.960;0.314;2024-01-30T13:05:15;16;14;
64627;PMS5003;68467;50.960;0.314;2024-01-30T13:07:43;14;13;
64627;PMS5003;68467;50.960;0.314;2024-01-30T13:10:10;17;17;
64627;PMS5003;68467;50.960;0.314;2024-01-30T13:12:38;11;10;
64627;PMS5003;68467;50.960;0.314;2024-01-30T13:15:05;24;22;
64627;PMS5003;68467;50.960;0.314;2024-01-30T13:17:33;18;17;
64627;PMS5003;68467;50.960;0.314;2024-01-30T13:20:01;36;34;
64627;PMS5003;68467;50.960;0.314;2024-01-30T13:22:28;18;18;
64627;PMS5003;68467;50.960;0.314;2024-01-30T13:24:55;86;78;
64627;PMS5003;68467;50.960;0.314;2024-01-30T13:27:23;13;13;
64627;PMS5003;68467;50.960;0.314;2024-01-30T13:29:50;22;22;
64627;PMS5003;68467;50.960;0.314;2024-01-30T13:32:17;19;19;
64627;PMS5003;68467;50.960;0.314;2024-01-30T13:34:45;17;16;
64627;PMS5003;68467;50.960;0.314;2024-01-30T13:37:13;18;18;
64627;PMS5003;68467;50.960;0.314;2024-01-30T13:39:40;9;9;
64627;PMS5003;68467;50.960;0.314;2024-01-30T13:42:06;6;5;
64627;PMS5003;68467;50.960;0.314;2024-01-30T13:44:34;53;52;
64627;PMS5003;68467;50.960;0.314;2024-01-30T13:47:02;15;15;
64627;PMS5003;68467;50.960;0.314;2024-01-30T13:49:30;7;7;
64627;PMS5003;68467;50.960;0.314;2024-01-30T13:51:57;8;8;
64627;PMS5003;68467;50.960;0.314;2024-01-30T13:54:24;9;9;
64627;PMS5003;68467;50.960;0.314;2024-01-30T13:56:51;13;13;
64627;PMS5003;68467;50.960;0.314;2024-01-30T13:59:18;22;21;
64627;PMS5003;68467;50.960;0.314;2024-01-30T14:01:45;10;9;
64627;PMS5003;68467;50.960;0.314;2024-01-30T14:04:12;30;29;
64627;PMS5003;68467;50.960;0.314;2024-01-30T14:06:39;10;10;
64627;PMS5003;68467;50.960;0.314;2024-01-30T14:09:07;8;8;
64627;PMS5003;68467;50.960;0.314;2024-01-30T14:11:34;15;14;
64627;PMS5003;68467;50.960;0.314;2024-01-30T14:14:01;13;13;
64627;PMS5003;68467;50.960;0.314;2024-01-30T14:16:28;31;30;
64627;PMS5003;68467;50.960;0.314;2024-01-30T14:18:55;6;6;
64627;PMS5003;68467;50.960;0.314;2024-01-30T14:21:22;10;10;
64627;PMS5003;68467;50.960;0.314;2024-01-30T14:23:49;13;13;
64627;PMS5003;68467;50.960;0.314;2024-01-30T14:26:16;15;15;
64627;PMS5003;68467;50.960;0.314;2024-01-30T14:28:43;7;6;
64627;PMS5003;68467;50.960;0.314;2024-01-30T14:31:15;6;5;
64627;PMS5003;68467;50.960;0.314;2024-01-30T14:33:42;11;11;
64627;PMS5003;68467;50.960;0.314;2024-01-30T14:36:09;10;9;
64627;PMS5003;68467;50.960;0.314;2024-01-30T14:38:36;9;8;
64627;PMS5003;68467;50.960;0.314;2024-01-30T14:41:03;16;15;
64627;PMS5003;68467;50.960;0.314;2024-01-30T14:43:30;14;13;
64627;PMS5003;68467;50.960;0.314;2024-01-30T14:45:57;9;9;
64627;PMS5003;68467;50.960;0.314;2024-01-30T14:48:24;5;5;
64627;PMS5003;68467;50.960;0.314;2024-01-30T14:50:51;6;6;
64627;PMS5003;68467;50.960;0.314;2024-01-30T14:53:18;7;6;
64627;PMS5003;68467;50.960;0.314;2024-01-30T14:55:46;6;6;
64627;PMS5003;68467;50.960;0.314;2024-01-30T14:58:13;5;5;
64627;PMS5003;68467;50.960;0.314;2024-01-30T15:00:40;17;17;
64627;PMS5003;68467;50.960;0.314;2024-01-30T15:03:06;6;5;
64627;PMS5003;68467;50.960;0.314;2024-01-30T15:05:35;9;9;
64627;PMS5003;68467;50.960;0.314;2024-01-30T15:08:02;6;6;
64627;PMS5003;68467;50.960;0.314;2024-01-30T15:10:30;8;8;
64627;PMS5003;68467;50.960;0.314;2024-01-30T15:12:56;11;10;
64627;PMS5003;68467;50.960;0.314;2024-01-30T15:15:24;4;4;
64627;PMS5003;68467;50.960;0.314;2024-01-30T15:17:51;31;30;
64627;PMS5003;68467;50.960;0.314;2024-01-30T15:20:18;4;4;
64627;PMS5003;68467;50.960;0.314;2024-01-30T15:22:45;5;5;
64627;PMS5003;68467;50.960;0.314;2024-01-30T15:25:13;6;6;
64627;PMS5003;68467;50.960;0.314;2024-01-30T15:27:40;6;6;
64627;PMS5003;68467;50.960;0.314;2024-01-30T15:30:07;8;8;
64627;PMS5003;68467;50.960;0.314;2024-01-30T15:32:37;8;8;
64627;PMS5003;68467;50.960;0.314;2024-01-30T15:35:05;9;9;
64627;PMS5003;68467;50.960;0.314;2024-01-30T15:37:33;25;25;
64627;PMS5003;68467;50.960;0.314;2024-01-30T15:40:00;13;13;
64627;PMS5003;68467;50.960;0.314;2024-01-30T15:42:27;13;12;
64627;PMS5003;68467;50.960;0.314;2024-01-30T15:44:55;12;12;
64627;PMS5003;68467;50.960;0.314;2024-01-30T15:47:22;20;20;
64627;PMS5003;68467;50.960;0.314;2024-01-30T15:49:48;26;24;
64627;PMS5003;68467;50.960;0.314;2024-01-30T15:52:15;15;15;
64627;PMS5003;68467;50.960;0.314;2024-01-30T15:54:43;7;7;
64627;PMS5003;68467;50.960;0.314;2024-01-30T15:57:09;3;3;
64627;PMS5003;68467;50.960;0.314;2024-01-30T15:59:36;5;5;
64627;PMS5003;68467;50.960;0.314;2024-01-30T16:02:04;8;8;
64627;PMS5003;68467;50.960;0.314;2024-01-30T16:04:32;5;5;
64627;PMS5003;68467;50.960;0.314;2024-01-30T16:06:59;4;4;
64627;PMS5003;68467;50.960;0.314;2024-01-30T16:09:26;5;5;
64627;PMS5003;68467;50.960;0.314;2024-01-30T16:11:54;5;5;
64627;PMS5003;68467;50.960;0.314;2024-01-30T16:14:21;5;4;
64627;PMS5003;68467;50.960;0.314;2024-01-30T16:16:48;12;12;
64627;PMS5003;68467;50.960;0.314;2024-01-30T16:19:15;7;7;
64627;PMS5003;68467;50.960;0.314;2024-01-30T16:21:42;6;6;
64627;PMS5003;68467;50.960;0.314;2024-01-30T16:24:10;13;12;
64627;PMS5003;68467;50.960;0.314;2024-01-30T16:26:37;9;8;
64627;PMS5003;68467;50.960;0.314;2024-01-30T16:29:04;16;16;
64627;PMS5003;68467;50.960;0.314;2024-01-30T16:31:32;15;15;
64627;PMS5003;68467;50.960;0.314;2024-01-30T16:33:59;11;11;
64627;PMS5003;68467;50.960;0.314;2024-01-30T16:36:26;65;61;
64627;PMS5003;68467;50.960;0.314;2024-01-30T16:38:53;13;13;
64627;PMS5003;68467;50.960;0.314;2024-01-30T16:41:20;16;15;
64627;PMS5003;68467;50.960;0.314;2024-01-30T16:43:48;17;17;